Lady Goodgirl — 9H8679 — position and weather

sailwx.info

Track history (hours):
 
Tides and Currents Weather Stations Pressure Air Temp Water Temp Dewpoint Dewpoint Depression Visibility Wind Speed Wind Dir Waves Ship Positions

Lady Goodgirl

Last reported at 2017-Jun-25 11:26 UTC. Time now 2017-Jun-25 12:22 UTC.
Position N 40°37' E 014°28'.

Length 43 m; draft 3 m.

Type: Pleasure craft. MMSI: 256670000.

Date/timePositionNaut miles runAvg speedWind from/ knotsBaromVisibWave heightAir tempDewpointWater temp
2017-Jun-25 11:26N 40°37' E 014°28'2 0.0
2017-Jun-23 11:48N 40°37' E 014°30'310.4
2017-Jun-23 11:28N 40°36' E 014°26'6 7.5
2017-Jun-23 10:41N 40°36' E 014°18'210.5
2017-Jun-23 10:31N 40°38' E 014°18'510.4
2017-Jun-23 10:01N 40°43' E 014°16'510.3
2017-Jun-23 09:29N 40°48' E 014°15'1 0.7
2017-Jun-23 07:30N 40°50' E 014°14'0 0.0
2017-Jun-23 06:48N 40°50' E 014°14'0 0.0
2017-Jun-23 05:51N 40°50' E 014°14'0 0.0
2017-Jun-23 05:24N 40°50' E 014°14'0 0.0
2017-Jun-22 19:36N 40°50' E 014°14'0 0.1
2017-Jun-22 19:27N 40°50' E 014°14'0 0.0
2017-Jun-22 18:39N 40°50' E 014°14'0 0.0
2017-Jun-22 18:24N 40°50' E 014°14'0 0.0
2017-Jun-22 17:45N 40°50' E 014°14'0 0.0
2017-Jun-22 17:27N 40°50' E 014°14'0 0.0
2017-Jun-22 16:51N 40°50' E 014°14'0 0.0
2017-Jun-22 16:30N 40°50' E 014°14'0 0.0
2017-Jun-22 15:54N 40°50' E 014°14'0 0.0
2017-Jun-22 15:27N 40°50' E 014°14'0 0.0
2017-Jun-22 14:57N 40°50' E 014°14'0 0.0
2017-Jun-22 14:27N 40°50' E 014°14'0 0.0
2017-Jun-22 13:24N 40°50' E 014°14'0 0.0
2017-Jun-22 12:57N 40°50' E 014°14'0 0.0
2017-Jun-22 12:30N 40°50' E 014°14'0 0.0
2017-Jun-22 11:56N 40°50' E 014°14'0 0.0
2017-Jun-22 11:29N 40°50' E 014°14'0 0.0
2017-Jun-22 10:59N 40°50' E 014°14'0 0.0
2017-Jun-22 10:29N 40°50' E 014°14'0 0.0
2017-Jun-22 09:59N 40°50' E 014°14'  
2017-Jun-19 23:06N 40°42' E 014°29'0 0.0
2017-Jun-19 23:00N 40°42' E 014°29'0 0.0
2017-Jun-19 19:21N 40°42' E 014°29'14 0.3
2017-Jun-17 16:50N 40°32' E 014°15'0 0.0
2017-Jun-17 16:23N 40°32' E 014°15'0 0.0
2017-Jun-17 15:05N 40°33' E 014°15'0 0.1
2017-Jun-17 14:59N 40°33' E 014°15'0 0.0
2017-Jun-17 13:51N 40°33' E 014°15'0 0.0
2017-Jun-17 13:30N 40°33' E 014°15'0 0.0
2017-Jun-17 13:00N 40°33' E 014°15'0 0.0
2017-Jun-17 12:30N 40°33' E 014°15'0 0.0
2017-Jun-17 12:00N 40°33' E 014°15'0 0.0
2017-Jun-17 11:30N 40°33' E 014°15'0 0.0
2017-Jun-17 11:00N 40°33' E 014°15'0 0.0
2017-Jun-17 10:30N 40°33' E 014°15'0 0.0
2017-Jun-17 10:00N 40°33' E 014°15'0 0.1
2017-Jun-17 09:30N 40°33' E 014°15'0 0.0
2017-Jun-17 08:53N 40°33' E 014°15'0 0.0
2017-Jun-17 08:30N 40°33' E 014°15'0 0.0
2017-Jun-17 06:29N 40°32' E 014°15'0 0.0
2017-Jun-17 05:53N 40°32' E 014°15'0 0.0
2017-Jun-17 05:26N 40°33' E 014°15'0 0.0
2017-Jun-17 04:27N 40°33' E 014°15'0 0.0
2017-Jun-17 04:00N 40°32' E 014°15'0 0.0
2017-Jun-17 03:30N 40°33' E 014°15'0 0.0
2017-Jun-17 03:00N 40°33' E 014°15'0 0.0
2017-Jun-17 02:30N 40°33' E 014°15'0 0.0
2017-Jun-17 02:00N 40°33' E 014°15'0 0.0
2017-Jun-17 01:27N 40°33' E 014°15'0 0.0
2017-Jun-17 01:00N 40°33' E 014°15'0 0.0
2017-Jun-17 00:17N 40°33' E 014°15'0 0.0
2017-Jun-16 23:27N 40°33' E 014°15'0 0.0
2017-Jun-16 23:00N 40°33' E 014°15'0 0.0
2017-Jun-16 22:30N 40°33' E 014°15'0 0.1
2017-Jun-16 22:00N 40°32' E 014°15'3 4.1
2017-Jun-16 21:21N 40°35' E 014°16'410.5
2017-Jun-16 20:59N 40°39' E 014°15'910.5
2017-Jun-16 20:06N 40°48' E 014°14'110.5
2017-Jun-16 20:00N 40°49' E 014°14'0 0.2
2017-Jun-16 18:04N 40°50' E 014°14'0 0.0
2017-Jun-16 17:55N 40°50' E 014°14'0 0.0
2017-Jun-16 17:04N 40°50' E 014°14'0 0.0
2017-Jun-16 16:49N 40°50' E 014°14'0 0.0
2017-Jun-16 15:46N 40°50' E 014°14'0 0.0
2017-Jun-16 15:25N 40°50' E 014°14'0 0.0
2017-Jun-16 14:58N 40°50' E 014°14'0 0.0
2017-Jun-16 11:19N 40°50' E 014°14'0 0.0
2017-Jun-15 23:37N 40°50' E 014°14'0 0.1
2017-Jun-15 23:25N 40°50' E 014°14'0 0.0
2017-Jun-15 22:58N 40°50' E 014°14'0 0.0
2017-Jun-15 22:28N 40°50' E 014°14'0 0.0
2017-Jun-15 21:58N 40°50' E 014°14'0 0.0
2017-Jun-15 20:34N 40°50' E 014°14'0 0.0
2017-Jun-15 20:13N 40°50' E 014°14'0 0.0
2017-Jun-15 19:22N 40°50' E 014°14'0 0.0
2017-Jun-15 18:55N 40°50' E 014°14'0 0.0
2017-Jun-15 18:25N 40°50' E 014°14'0 0.0
2017-Jun-15 17:58N 40°50' E 014°14'0 0.0
2017-Jun-15 17:28N 40°50' E 014°14'0 0.0
2017-Jun-15 16:55N 40°50' E 014°14'0 0.0
2017-Jun-15 16:31N 40°50' E 014°14'0 0.0
2017-Jun-15 16:01N 40°50' E 014°14'0 0.0
2017-Jun-15 15:09N 40°50' E 014°14'0 0.0
2017-Jun-15 12:30N 40°50' E 014°14'0 0.0
2017-Jun-15 12:00N 40°50' E 014°14'  
Track history (hours):
 
Tides and Currents Weather Stations Pressure Air Temp Water Temp Dewpoint Dewpoint Depression Visibility Wind Speed Wind Dir Waves Ship Positions

Lady Goodgirl

Last reported at 2017-Jun-25 11:26 UTC. Time now 2017-Jun-25 12:22 UTC.
Position N 40°37' E 014°28'.

Length 43 m; draft 3 m.

Type: Pleasure craft. MMSI: 256670000.

Date/timePositionNaut miles runAvg speedWind from/ knotsBaromVisibWave heightAir tempDewpointWater temp
2017-Jun-25 11:26N 40°37' E 014°28'2 0.0
2017-Jun-23 11:48N 40°37' E 014°30'310.4
2017-Jun-23 11:28N 40°36' E 014°26'6 7.5
2017-Jun-23 10:41N 40°36' E 014°18'210.5
2017-Jun-23 10:31N 40°38' E 014°18'510.4
2017-Jun-23 10:01N 40°43' E 014°16'510.3
2017-Jun-23 09:29N 40°48' E 014°15'1 0.7
2017-Jun-23 07:30N 40°50' E 014°14'0 0.0
2017-Jun-23 06:48N 40°50' E 014°14'0 0.0
2017-Jun-23 05:51N 40°50' E 014°14'0 0.0
2017-Jun-23 05:24N 40°50' E 014°14'0 0.0
2017-Jun-22 19:36N 40°50' E 014°14'0 0.1
2017-Jun-22 19:27N 40°50' E 014°14'0 0.0
2017-Jun-22 18:39N 40°50' E 014°14'0 0.0
2017-Jun-22 18:24N 40°50' E 014°14'0 0.0
2017-Jun-22 17:45N 40°50' E 014°14'0 0.0
2017-Jun-22 17:27N 40°50' E 014°14'0 0.0
2017-Jun-22 16:51N 40°50' E 014°14'0 0.0
2017-Jun-22 16:30N 40°50' E 014°14'0 0.0
2017-Jun-22 15:54N 40°50' E 014°14'0 0.0
2017-Jun-22 15:27N 40°50' E 014°14'0 0.0
2017-Jun-22 14:57N 40°50' E 014°14'0 0.0
2017-Jun-22 14:27N 40°50' E 014°14'0 0.0
2017-Jun-22 13:24N 40°50' E 014°14'0 0.0
2017-Jun-22 12:57N 40°50' E 014°14'0 0.0
2017-Jun-22 12:30N 40°50' E 014°14'0 0.0
2017-Jun-22 11:56N 40°50' E 014°14'0 0.0
2017-Jun-22 11:29N 40°50' E 014°14'0 0.0
2017-Jun-22 10:59N 40°50' E 014°14'0 0.0
2017-Jun-22 10:29N 40°50' E 014°14'0 0.0
2017-Jun-22 09:59N 40°50' E 014°14'  
2017-Jun-19 23:06N 40°42' E 014°29'0 0.0
2017-Jun-19 23:00N 40°42' E 014°29'0 0.0
2017-Jun-19 19:21N 40°42' E 014°29'14 0.3
2017-Jun-17 16:50N 40°32' E 014°15'0 0.0
2017-Jun-17 16:23N 40°32' E 014°15'0 0.0
2017-Jun-17 15:05N 40°33' E 014°15'0 0.1
2017-Jun-17 14:59N 40°33' E 014°15'0 0.0
2017-Jun-17 13:51N 40°33' E 014°15'0 0.0
2017-Jun-17 13:30N 40°33' E 014°15'0 0.0
2017-Jun-17 13:00N 40°33' E 014°15'0 0.0
2017-Jun-17 12:30N 40°33' E 014°15'0 0.0
2017-Jun-17 12:00N 40°33' E 014°15'0 0.0
2017-Jun-17 11:30N 40°33' E 014°15'0 0.0
2017-Jun-17 11:00N 40°33' E 014°15'0 0.0
2017-Jun-17 10:30N 40°33' E 014°15'0 0.0
2017-Jun-17 10:00N 40°33' E 014°15'0 0.1
2017-Jun-17 09:30N 40°33' E 014°15'0 0.0
2017-Jun-17 08:53N 40°33' E 014°15'0 0.0
2017-Jun-17 08:30N 40°33' E 014°15'0 0.0
2017-Jun-17 06:29N 40°32' E 014°15'0 0.0
2017-Jun-17 05:53N 40°32' E 014°15'0 0.0
2017-Jun-17 05:26N 40°33' E 014°15'0 0.0
2017-Jun-17 04:27N 40°33' E 014°15'0 0.0
2017-Jun-17 04:00N 40°32' E 014°15'0 0.0
2017-Jun-17 03:30N 40°33' E 014°15'0 0.0
2017-Jun-17 03:00N 40°33' E 014°15'0 0.0
2017-Jun-17 02:30N 40°33' E 014°15'0 0.0
2017-Jun-17 02:00N 40°33' E 014°15'0 0.0
2017-Jun-17 01:27N 40°33' E 014°15'0 0.0
2017-Jun-17 01:00N 40°33' E 014°15'0 0.0
2017-Jun-17 00:17N 40°33' E 014°15'0 0.0
2017-Jun-16 23:27N 40°33' E 014°15'0 0.0
2017-Jun-16 23:00N 40°33' E 014°15'0 0.0
2017-Jun-16 22:30N 40°33' E 014°15'0 0.1
2017-Jun-16 22:00N 40°32' E 014°15'3 4.1
2017-Jun-16 21:21N 40°35' E 014°16'410.5
2017-Jun-16 20:59N 40°39' E 014°15'910.5
2017-Jun-16 20:06N 40°48' E 014°14'110.5
2017-Jun-16 20:00N 40°49' E 014°14'0 0.2
2017-Jun-16 18:04N 40°50' E 014°14'0 0.0
2017-Jun-16 17:55N 40°50' E 014°14'0 0.0
2017-Jun-16 17:04N 40°50' E 014°14'0 0.0
2017-Jun-16 16:49N 40°50' E 014°14'0 0.0
2017-Jun-16 15:46N 40°50' E 014°14'0 0.0
2017-Jun-16 15:25N 40°50' E 014°14'0 0.0
2017-Jun-16 14:58N 40°50' E 014°14'0 0.0
2017-Jun-16 11:19N 40°50' E 014°14'0 0.0
2017-Jun-15 23:37N 40°50' E 014°14'0 0.1
2017-Jun-15 23:25N 40°50' E 014°14'0 0.0
2017-Jun-15 22:58N 40°50' E 014°14'0 0.0
2017-Jun-15 22:28N 40°50' E 014°14'0 0.0
2017-Jun-15 21:58N 40°50' E 014°14'0 0.0
2017-Jun-15 20:34N 40°50' E 014°14'0 0.0
2017-Jun-15 20:13N 40°50' E 014°14'0 0.0
2017-Jun-15 19:22N 40°50' E 014°14'0 0.0
2017-Jun-15 18:55N 40°50' E 014°14'0 0.0
2017-Jun-15 18:25N 40°50' E 014°14'0 0.0
2017-Jun-15 17:58N 40°50' E 014°14'0 0.0
2017-Jun-15 17:28N 40°50' E 014°14'0 0.0
2017-Jun-15 16:55N 40°50' E 014°14'0 0.0
2017-Jun-15 16:31N 40°50' E 014°14'0 0.0
2017-Jun-15 16:01N 40°50' E 014°14'0 0.0
2017-Jun-15 15:09N 40°50' E 014°14'0 0.0
2017-Jun-15 12:30N 40°50' E 014°14'0 0.0
2017-Jun-15 12:00N 40°50' E 014°14'  

Dump ship's entire track history